createdAt,value
2022-10-08T00:01:07.466Z,9.70
2022-10-08T00:03:37.731Z,9.70
2022-10-08T00:06:13.150Z,9.70
2022-10-08T00:08:42.087Z,9.70
2022-10-08T00:11:16.394Z,9.70
2022-10-08T00:13:45.469Z,9.70
2022-10-08T00:16:19.913Z,9.70
2022-10-08T00:18:48.351Z,9.70
2022-10-08T00:21:17.323Z,9.70
2022-10-08T00:23:46.822Z,9.70
2022-10-08T00:26:15.419Z,9.70
2022-10-08T00:28:45.304Z,9.70
2022-10-08T00:31:21.076Z,9.70
2022-10-08T00:33:56.446Z,9.60
2022-10-08T00:36:25.355Z,9.70
2022-10-08T00:39:00.033Z,9.70
2022-10-08T00:41:32.025Z,9.70
2022-10-08T00:44:04.246Z,9.60
2022-10-08T00:46:36.614Z,9.60
2022-10-08T00:49:11.365Z,9.70
2022-10-08T00:51:44.025Z,9.70
2022-10-08T00:54:12.746Z,9.70
2022-10-08T00:56:40.690Z,9.70
2022-10-08T00:59:08.774Z,9.70
2022-10-08T01:01:35.904Z,9.70
2022-10-08T01:04:07.179Z,9.70
2022-10-08T01:06:55.138Z,9.70
2022-10-08T01:09:29.428Z,9.70
2022-10-08T01:12:16.801Z,9.70
2022-10-08T01:15:02.083Z,9.70
2022-10-08T01:17:49.772Z,9.80
2022-10-08T01:20:43.496Z,9.80
2022-10-08T01:23:34.513Z,9.80
2022-10-08T01:26:20.735Z,9.90
2022-10-08T01:29:28.009Z,9.90
2022-10-08T01:32:03.336Z,9.90
2022-10-08T01:34:52.992Z,9.90
2022-10-08T01:37:29.181Z,10.00
2022-10-08T01:39:59.347Z,9.90
2022-10-08T01:42:27.931Z,9.90
2022-10-08T01:45:02.087Z,9.90
2022-10-08T01:47:30.970Z,9.90
2022-10-08T01:50:03.954Z,9.90
2022-10-08T01:52:41.864Z,9.90
2022-10-08T01:55:22.757Z,9.90
2022-10-08T01:57:51.495Z,9.90
2022-10-08T02:00:18.299Z,9.90
2022-10-08T02:02:45.273Z,9.80
2022-10-08T02:05:12.402Z,9.80
2022-10-08T02:07:42.367Z,9.80
2022-10-08T02:10:10.985Z,9.80
2022-10-08T02:12:40.208Z,9.90
2022-10-08T02:15:11.889Z,9.90
2022-10-08T02:17:51.564Z,10.00
2022-10-08T02:20:20.883Z,10.00
2022-10-08T02:22:58.692Z,10.10
2022-10-08T02:25:34.342Z,10.20
2022-10-08T02:28:24.177Z,10.20
2022-10-08T02:31:00.025Z,10.30
2022-10-08T02:43:31.440Z,10.40
2022-10-08T02:46:27.449Z,10.80
